Time;durP1;ratioP1;P1;durP2;ratioP2;P2;SDS_P1;SDS_P2;PMS_P1;PMS_P2;Temp;Humidity;BMP_temperature;BMP_pressure;BME280_temperature;BME280_humidity;BME280_pressure;Samples;Min_cycle;Max_cycle;Signal;HPM_P1;HPM_P2
2023/10/15 00:00:27;;;;;;;5.67;3.30;;;;;;;14.75;100.00;100967.38;2049074;29;20724;-66
2023/10/15 00:01:28;;;;;;;7.10;3.50;;;;;;;14.39;100.00;100909.25;2048394;28;20223;-66
2023/10/15 00:02:31;;;;;;;5.47;3.80;;;;;;;14.72;100.00;100962.69;2048418;28;20721;-66
2023/10/15 00:03:33;;;;;;;4.37;3.03;;;;;;;14.71;100.00;100961.13;2048570;29;20208;-66
2023/10/15 00:04:35;;;;;;;5.03;3.47;;;;;;;14.71;100.00;100961.13;2048226;29;20545;-66
2023/10/15 00:05:35;;;;;;;5.07;3.70;;;;;;;14.68;100.00;100960.03;2047466;29;20482;-67
2023/10/15 00:06:35;;;;;;;6.80;3.40;;;;;;;14.63;100.00;100948.66;2048493;28;20424;-66
2023/10/15 00:07:36;;;;;;;5.63;3.63;;;;;;;14.64;100.00;100958.56;2048610;28;20629;-66
2023/10/15 00:08:36;;;;;;;4.70;3.50;;;;;;;14.66;100.00;100954.09;2048457;28;20188;-66
2023/10/15 00:09:39;;;;;;;6.67;3.03;;;;;;;14.64;100.00;100951.00;2041228;29;20188;-66
2023/10/15 00:10:39;;;;;;;4.90;3.23;;;;;;;14.41;100.00;100920.75;2047854;28;20184;-66
2023/10/15 00:11:40;;;;;;;7.20;3.63;;;;;;;14.24;100.00;100897.03;2048605;28;20509;-66
2023/10/15 00:12:43;;;;;;;4.90;3.70;;;;;;;14.60;100.00;100955.16;2048250;28;20505;-66
2023/10/15 00:13:44;;;;;;;6.20;3.90;;;;;;;14.57;100.00;100962.41;2047779;28;20207;-66
2023/10/15 00:14:45;;;;;;;6.03;3.70;;;;;;;14.56;100.00;100951.69;2048420;28;20455;-66
2023/10/15 00:15:45;;;;;;;8.10;3.60;;;;;;;14.55;100.00;100950.16;2048121;28;20188;-66
2023/10/15 00:16:47;;;;;;;6.83;3.90;;;;;;;14.53;100.00;100953.38;2048416;28;20195;-66
2023/10/15 00:17:50;;;;;;;4.80;3.10;;;;;;;14.51;100.00;100950.25;2049169;29;20217;-66
2023/10/15 00:18:51;;;;;;;7.20;3.50;;;;;;;14.49;100.00;100949.94;2048441;29;20531;-66
2023/10/15 00:19:51;;;;;;;7.87;3.97;;;;;;;14.49;100.00;100949.16;2048410;28;20454;-66
2023/10/15 00:20:54;;;;;;;5.13;3.27;;;;;;;14.48;100.00;100950.38;2048089;28;20225;-66
2023/10/15 00:21:54;;;;;;;6.77;3.97;;;;;;;14.47;100.00;100948.81;2048020;28;20203;-66
2023/10/15 00:22:54;;;;;;;7.67;4.30;;;;;;;14.45;100.00;100949.25;2048307;28;20454;-66
2023/10/15 00:23:56;;;;;;;5.27;3.60;;;;;;;14.45;100.00;100948.50;2048531;28;20190;-66
2023/10/15 00:24:57;;;;;;;6.73;3.60;;;;;;;14.44;100.00;100953.28;2048490;29;20197;-66
2023/10/15 00:25:59;;;;;;;10.30;3.70;;;;;;;14.43;100.00;100948.16;2047755;28;20412;-65
2023/10/15 00:26:59;;;;;;;6.23;4.07;;;;;;;14.42;100.00;100950.19;2049122;29;20194;-66
2023/10/15 00:28:01;;;;;;;10.67;3.60;;;;;;;14.41;100.00;100954.22;2048409;28;20461;-66
2023/10/15 00:29:01;;;;;;;7.33;4.30;;;;;;;13.96;100.00;100881.25;2048355;29;20257;-66
2023/10/15 00:30:09;;;;;;;11.17;4.30;;;;;;;14.39;100.00;100948.28;2048329;28;20455;-66
2023/10/15 00:31:11;;;;;;;6.23;3.70;;;;;;;14.37;100.00;100945.19;2048258;28;20290;-66
2023/10/15 00:32:12;;;;;;;5.10;3.30;;;;;;;14.38;100.00;100949.53;2051063;28;20468;-66
2023/10/15 00:33:13;;;;;;;6.23;4.07;;;;;;;14.37;100.00;100953.53;2052519;28;20517;-66
2023/10/15 00:34:14;;;;;;;6.97;3.97;;;;;;;14.37;100.00;100959.13;2048287;28;20418;-68
2023/10/15 00:35:21;;;;;;;4.33;3.43;;;;;;;14.37;100.00;100945.19;2048103;28;20191;-68
2023/10/15 00:36:23;;;;;;;5.70;3.33;;;;;;;14.38;100.00;100957.88;2048164;28;20175;-68
2023/10/15 00:37:23;;;;;;;4.90;3.73;;;;;;;14.37;100.00;100941.59;2048784;29;21098;-68
2023/10/15 00:38:24;;;;;;;6.60;3.80;;;;;;;14.35;100.00;100955.22;2039828;29;20984;-67
2023/10/15 00:39:25;;;;;;;5.27;3.13;;;;;;;14.34;100.00;100953.66;2039835;29;20194;-66
2023/10/15 00:40:27;;;;;;;8.23;4.03;;;;;;;14.34;100.00;100956.47;2049128;28;20452;-66
2023/10/15 00:41:28;;;;;;;5.33;3.27;;;;;;;13.93;100.00;100878.59;2052044;28;20765;-66
2023/10/15 00:42:30;;;;;;;4.37;3.00;;;;;;;14.33;100.00;100940.94;2047998;28;20866;-66
2023/10/15 00:43:30;;;;;;;5.07;3.30;;;;;;;14.32;100.00;100945.75;2048221;28;20245;-66
2023/10/15 00:44:31;;;;;;;4.67;3.23;;;;;;;13.88;100.00;100885.50;2048175;28;20433;-66
2023/10/15 00:45:43;;;;;;;4.60;3.33;;;;;;;14.22;100.00;100944.09;2048315;29;20264;-66
2023/10/15 00:46:54;;;;;;;4.43;3.40;;;;;;;14.22;100.00;100949.69;2048282;28;20181;-66
2023/10/15 00:48:07;;;;;;;5.27;3.40;;;;;;;13.96;100.00;100914.69;2040160;28;20441;-66
2023/10/15 00:49:14;;;;;;;8.07;3.70;;;;;;;14.16;100.00;100945.88;2047940;29;20407;-66
2023/10/15 00:50:15;;;;;;;4.03;3.17;;;;;;;14.15;100.00;100946.31;2048231;28;20842;-66
2023/10/15 00:51:20;;;;;;;6.83;3.73;;;;;;;13.95;100.00;100904.00;2048786;29;20932;-66
2023/10/15 00:52:20;;;;;;;6.13;3.37;;;;;;;14.11;100.00;100946.44;2047999;28;20460;-68
2023/10/15 00:53:26;;;;;;;6.00;3.30;;;;;;;14.10;100.00;100938.50;2048202;29;20450;-67
2023/10/15 00:54:27;;;;;;;5.13;3.50;;;;;;;14.06;100.00;100929.50;2048407;28;20193;-67
2023/10/15 00:55:28;;;;;;;5.77;3.53;;;;;;;14.02;100.00;100924.03;2047496;28;20456;-68
2023/10/15 00:56:35;;;;;;;5.10;3.53;;;;;;;14.05;100.00;100925.16;2048191;28;20201;-68
2023/10/15 00:57:42;;;;;;;5.00;3.47;;;;;;;14.11;100.00;100928.91;2047984;28;20677;-68
2023/10/15 00:59:48;;;;;;;5.57;4.07;;;;;;;14.13;100.00;100932.03;2039745;29;20510;-67
2023/10/15 01:02:12;;;;;;;6.80;3.70;;;;;;;14.10;100.00;100933.69;2047365;28;20425;-67
2023/10/15 01:03:13;;;;;;;5.67;3.73;;;;;;;14.07;100.00;100925.47;2048116;29;20410;-67
2023/10/15 01:04:15;;;;;;;8.87;3.57;;;;;;;14.12;100.00;100936.03;2051633;28;20519;-67
2023/10/15 01:05:16;;;;;;;6.17;4.00;;;;;;;14.13;100.00;100938.41;2047698;29;20451;-67
2023/10/15 01:06:29;;;;;;;5.80;4.03;;;;;;;14.13;100.00;100924.47;2048552;29;20430;-67
2023/10/15 01:07:41;;;;;;;5.60;3.90;;;;;;;14.04;100.00;100923.59;2040815;29;20510;-67
2023/10/15 01:08:42;;;;;;;4.80;3.53;;;;;;;14.09;100.00;100929.38;2040174;28;20418;-67
2023/10/15 01:09:42;;;;;;;5.37;3.57;;;;;;;14.10;100.00;100928.13;2048715;29;20439;-67
2023/10/15 01:10:43;;;;;;;7.10;3.97;;;;;;;14.12;100.00;100934.06;2047493;29;20952;-67
2023/10/15 01:11:51;;;;;;;8.07;3.97;;;;;;;14.05;100.00;100923.16;2047171;28;20205;-67
2023/10/15 01:12:52;;;;;;;5.63;3.97;;;;;;;14.14;100.00;100928.03;2048112;28;20208;-67
2023/10/15 01:13:53;;;;;;;5.87;3.80;;;;;;;14.13;100.00;100932.03;2048292;28;20454;-67
2023/10/15 01:14:54;;;;;;;6.90;4.40;;;;;;;14.11;100.00;100931.72;2047890;28;20461;-67
2023/10/15 01:16:02;;;;;;;7.07;3.67;;;;;;;14.14;100.00;100928.03;2047347;29;20868;-67
2023/10/15 01:17:02;;;;;;;6.50;4.20;;;;;;;14.14;100.00;100926.00;2047018;28;20618;-67
2023/10/15 01:18:07;;;;;;;6.17;3.57;;;;;;;14.12;100.00;100922.13;2048237;28;20419;-68
2023/10/15 01:20:09;;;;;;;7.20;3.87;;;;;;;14.14;100.00;100933.59;2048759;29;20435;-67
2023/10/15 01:21:10;;;;;;;6.57;3.87;;;;;;;14.14;100.00;100923.22;2047847;28;20517;-67
2023/10/15 01:22:17;;;;;;;4.93;3.33;;;;;;;14.15;100.00;100924.00;2047309;28;20462;-68
2023/10/15 01:23:32;;;;;;;6.77;4.23;;;;;;;14.15;100.00;100916.41;2048105;28;20258;-67
2023/10/15 01:24:38;;;;;;;6.13;3.67;;;;;;;14.15;100.00;100926.81;2048178;28;20446;-68
2023/10/15 01:25:46;;;;;;;7.00;3.67;;;;;;;14.16;100.00;100925.56;2047534;28;20462;-67
2023/10/15 01:26:59;;;;;;;5.67;3.57;;;;;;;14.15;100.00;100924.00;2047806;28;20463;-66
2023/10/15 01:28:00;;;;;;;7.73;4.10;;;;;;;14.15;100.00;100922.00;2039363;29;21050;-68
2023/10/15 01:29:01;;;;;;;5.13;3.20;;;;;;;14.14;100.00;100925.25;2039494;29;20937;-67
2023/10/15 01:30:02;;;;;;;4.73;3.37;;;;;;;14.13;100.00;100910.53;2047810;28;20234;-68
2023/10/15 01:31:06;;;;;;;8.43;3.47;;;;;;;14.13;100.00;100926.44;2047456;28;20199;-68
2023/10/15 01:32:15;;;;;;;5.00;3.47;;;;;;;14.13;100.00;100923.66;2050163;28;20533;-68
2023/10/15 01:33:16;;;;;;;5.93;3.63;;;;;;;14.14;100.00;100922.47;2053042;28;20494;-68
2023/10/15 01:34:21;;;;;;;6.13;3.50;;;;;;;14.12;100.00;100922.13;2047997;28;20510;-67
2023/10/15 01:35:21;;;;;;;5.73;3.23;;;;;;;14.14;100.00;100923.22;2047505;28;20168;-68
2023/10/15 01:36:27;;;;;;;6.33;3.60;;;;;;;14.12;100.00;100924.91;2048589;29;20423;-67
2023/10/15 01:37:27;;;;;;;5.10;3.37;;;;;;;14.12;100.00;100933.25;2048293;29;20621;-67
2023/10/15 01:38:28;;;;;;;8.60;4.03;;;;;;;14.12;100.00;100931.25;2047963;28;20825;-68
2023/10/15 01:39:39;;;;;;;6.63;4.10;;;;;;;14.14;100.00;100933.59;2048050;28;20218;-67
2023/10/15 01:40:44;;;;;;;8.60;3.13;;;;;;;14.14;100.00;100926.00;2053408;28;20552;-67
2023/10/15 01:41:44;;;;;;;8.03;3.37;;;;;;;14.10;100.00;100927.38;2049844;28;21051;-68
2023/10/15 01:42:46;;;;;;;5.63;3.40;;;;;;;14.13;100.00;100930.03;2047804;28;20506;-68
2023/10/15 01:43:48;;;;;;;6.47;3.37;;;;;;;13.58;100.00;100847.09;2047919;28;20257;-67
2023/10/15 01:44:48;;;;;;;4.50;3.00;;;;;;;13.95;100.00;100904.00;2047187;28;21084;-67
2023/10/15 01:45:56;;;;;;;6.03;2.97;;;;;;;14.07;100.00;100926.25;2047201;29;20431;-67
2023/10/15 01:48:05;;;;;;;6.80;3.73;;;;;;;13.78;100.00;100894.97;2047574;28;20410;-67
2023/10/15 01:49:08;;;;;;;4.50;3.43;;;;;;;13.67;100.00;100871.47;2047228;29;20977;-67
2023/10/15 01:50:14;;;;;;;7.30;3.53;;;;;;;13.98;100.00;100919.81;2047256;29;20439;-68
2023/10/15 01:51:16;;;;;;;6.20;4.27;;;;;;;14.00;100.00;100918.16;2047396;28;20457;-68
2023/10/15 01:52:29;;;;;;;7.07;3.90;;;;;;;14.00;100.00;100926.50;2047592;28;20500;-67
2023/10/15 01:53:29;;;;;;;5.83;3.60;;;;;;;14.02;100.00;100926.03;2047720;28;20536;-67
2023/10/15 01:54:31;;;;;;;5.83;3.53;;;;;;;14.00;100.00;100929.28;2047892;28;20948;-68
2023/10/15 01:55:35;;;;;;;5.57;3.70;;;;;;;13.98;100.00;100923.38;2047311;28;20208;-67
2023/10/15 01:56:37;;;;;;;6.70;3.77;;;;;;;13.80;100.00;100898.13;2047894;28;20945;-67
2023/10/15 01:57:37;;;;;;;4.70;3.40;;;;;;;13.99;100.00;100921.38;2047786;28;20434;-68
2023/10/15 01:58:39;;;;;;;12.53;4.33;;;;;;;13.99;100.00;100919.34;2047546;28;20430;-68
2023/10/15 01:59:46;;;;;;;5.53;3.87;;;;;;;13.92;100.00;100933.53;2048027;29;20190;-67
2023/10/15 02:00:50;;;;;;;5.97;3.67;;;;;;;13.91;100.00;100939.53;2048238;29;20551;-67
2023/10/15 02:01:50;;;;;;;8.30;4.00;;;;;;;13.94;100.00;100933.09;2047346;28;20603;-67
2023/10/15 02:02:53;;;;;;;7.00;4.50;;;;;;;13.57;100.00;100876.16;2047749;29;20443;-67
2023/10/15 02:03:53;;;;;;;6.27;3.97;;;;;;;13.96;100.00;100936.19;2048012;28;20202;-67
2023/10/15 02:04:57;;;;;;;4.90;3.30;;;;;;;13.95;100.00;100932.63;2047646;29;20946;-67
2023/10/15 02:06:05;;;;;;;10.80;4.50;;;;;;;13.92;100.00;100936.31;2047176;28;20194;-67
2023/10/15 02:07:05;;;;;;;6.27;4.10;;;;;;;13.97;100.00;100935.75;2047733;29;20485;-67
2023/10/15 02:08:12;;;;;;;5.20;3.80;;;;;;;13.98;100.00;100940.09;2047822;28;20426;-67
2023/10/15 02:09:19;;;;;;;7.03;4.30;;;;;;;14.00;100.00;100934.88;2047612;28;20168;-67
2023/10/15 02:10:19;;;;;;;9.00;4.03;;;;;;;14.02;100.00;100934.38;2047815;28;20418;-67
2023/10/15 02:11:23;;;;;;;6.50;4.20;;;;;;;14.03;100.00;100938.75;2047776;29;20438;-66
2023/10/15 02:12:23;;;;;;;5.33;3.23;;;;;;;14.04;100.00;100924.34;2039654;29;20258;-66
2023/10/15 02:13:26;;;;;;;6.07;3.80;;;;;;;14.06;100.00;100940.63;2046433;28;20459;-67
2023/10/15 02:14:30;;;;;;;5.53;3.97;;;;;;;14.06;100.00;100940.63;2047972;29;20257;-66
2023/10/15 02:15:41;;;;;;;5.10;3.80;;;;;;;14.07;100.00;100936.63;2052090;28;20438;-66
2023/10/15 02:16:41;;;;;;;7.03;4.60;;;;;;;14.06;100.00;100932.28;2049919;28;20893;-66
2023/10/15 02:17:43;;;;;;;6.97;4.53;;;;;;;14.09;100.00;100937.72;2047850;28;20528;-66
2023/10/15 02:18:45;;;;;;;6.73;4.03;;;;;;;14.10;100.00;100938.50;2047537;28;20203;-66
2023/10/15 02:19:47;;;;;;;8.23;4.50;;;;;;;13.74;100.00;100877.59;2047787;29;21028;-68
2023/10/15 02:21:51;;;;;;;13.93;4.73;;;;;;;14.10;100.00;100941.31;2047279;28;20485;-67
2023/10/15 02:22:57;;;;;;;7.53;4.23;;;;;;;14.02;100.00;100934.38;2048307;29;20478;-68
2023/10/15 02:24:07;;;;;;;7.87;4.20;;;;;;;14.00;100.00;100950.78;2048266;29;20687;-67
2023/10/15 02:25:08;;;;;;;8.40;4.00;;;;;;;13.94;100.00;100944.97;2047839;28;20454;-67
2023/10/15 02:26:09;;;;;;;10.30;3.97;;;;;;;13.98;100.00;100936.53;2047004;29;20458;-67
2023/10/15 02:27:09;;;;;;;5.77;3.80;;;;;;;13.65;100.00;100888.66;2038986;29;20458;-67
2023/10/15 02:28:10;;;;;;;7.27;4.40;;;;;;;14.03;100.00;100935.97;2038449;29;20655;-67
2023/10/15 02:30:32;;;;;;;10.53;3.90;;;;;;;14.04;100.00;100929.94;2047797;28;20274;-67
2023/10/15 02:31:41;;;;;;;8.73;3.93;;;;;;;14.02;100.00;100928.81;2047731;28;20503;-67
2023/10/15 02:32:43;;;;;;;7.03;3.87;;;;;;;13.84;100.00;100909.13;2050814;28;20830;-67
2023/10/15 02:33:44;;;;;;;7.77;4.10;;;;;;;14.00;100.00;100943.22;2047542;28;21008;-67
2023/10/15 02:34:44;;;;;;;5.97;3.57;;;;;;;13.99;100.00;100930.50;2047632;28;20844;-67
2023/10/15 02:35:47;;;;;;;9.53;4.10;;;;;;;14.00;100.00;100932.06;2047958;29;20191;-66
2023/10/15 02:36:48;;;;;;;7.57;5.10;;;;;;;13.83;100.00;100902.00;2040295;29;20638;-67
2023/10/15 02:37:48;;;;;;;12.03;4.50;;;;;;;14.04;100.00;100934.75;2048258;28;20518;-68
2023/10/15 02:38:59;;;;;;;6.37;4.53;;;;;;;14.07;100.00;100931.84;2049126;28;20207;-66
2023/10/15 02:40:00;;;;;;;8.10;4.40;;;;;;;14.05;100.00;100923.16;2049320;28;20260;-67
2023/10/15 02:41:04;;;;;;;7.77;4.30;;;;;;;13.95;100.00;100927.06;2049020;28;20581;-66
2023/10/15 02:42:05;;;;;;;8.30;4.37;;;;;;;13.96;100.00;100934.19;2048448;28;20234;-66
2023/10/15 02:43:06;;;;;;;11.63;4.70;;;;;;;13.99;100.00;100930.50;2049167;28;20458;-66
2023/10/15 02:44:14;;;;;;;9.80;4.90;;;;;;;14.02;100.00;100931.59;2049215;29;20194;-66
2023/10/15 02:45:14;;;;;;;9.70;4.90;;;;;;;13.98;100.00;100925.41;2048472;29;20547;-66
2023/10/15 02:46:21;;;;;;;11.03;4.87;;;;;;;13.46;100.00;100847.09;2048631;29;20502;-66
2023/10/15 02:47:31;;;;;;;8.67;4.17;;;;;;;13.94;100.00;100930.28;2049849;29;20562;-66
2023/10/15 02:48:33;;;;;;;6.53;4.40;;;;;;;13.94;100.00;100921.94;2049810;29;20458;-65
2023/10/15 02:51:09;;;;;;;11.47;4.77;;;;;;;13.96;100.00;100923.03;2047921;29;20821;-66
2023/10/15 02:52:18;;;;;;;8.07;4.00;;;;;;;13.97;100.00;100927.38;2046732;29;20414;-66
2023/10/15 02:53:23;;;;;;;5.60;3.90;;;;;;;13.97;100.00;100919.03;2041919;28;20177;-66
2023/10/15 02:55:27;;;;;;;11.40;4.67;;;;;;;13.99;100.00;100924.91;2049153;29;20435;-66
2023/10/15 02:56:28;;;;;;;9.70;3.87;;;;;;;14.01;100.00;100924.47;2048736;28;20922;-65
2023/10/15 02:57:30;;;;;;;10.10;5.00;;;;;;;14.01;100.00;100928.06;2049030;28;20195;-65
2023/10/15 02:58:30;;;;;;;10.37;4.27;;;;;;;13.88;100.00;100916.13;2048821;28;20453;-66
2023/10/15 02:59:31;;;;;;;9.70;4.20;;;;;;;14.00;100.00;100931.28;2049130;28;20453;-66
2023/10/15 03:00:36;;;;;;;6.77;4.60;;;;;;;14.01;100.00;100928.06;2049053;28;20222;-65
2023/10/15 03:01:38;;;;;;;5.97;3.70;;;;;;;14.00;100.00;100932.06;2048715;28;20188;-65
2023/10/15 03:02:43;;;;;;;7.17;4.93;;;;;;;14.02;100.00;100926.81;2048423;29;20423;-65
2023/10/15 03:03:49;;;;;;;8.27;4.23;;;;;;;14.04;100.00;100938.28;2048997;28;20419;-66
2023/10/15 03:04:55;;;;;;;9.87;5.13;;;;;;;14.04;100.00;100937.53;2049198;29;20970;-67
2023/10/15 03:05:57;;;;;;;8.30;3.87;;;;;;;13.98;100.00;100942.88;2049204;29;20419;-66
2023/10/15 03:07:17;;;;;;;12.70;5.17;;;;;;;13.99;100.00;100944.44;2055344;28;20959;-66
2023/10/15 03:08:20;;;;;;;9.47;4.40;;;;;;;13.99;100.00;100941.63;2049811;28;20415;-66
2023/10/15 03:09:20;;;;;;;10.70;5.00;;;;;;;13.97;100.00;100948.88;2049427;29;20428;-65
2023/10/15 03:10:23;;;;;;;10.37;4.33;;;;;;;13.92;100.00;100936.31;2048951;28;20459;-65
2023/10/15 03:11:25;;;;;;;13.57;4.57;;;;;;;13.61;100.00;100910.25;2048588;28;20191;-66
2023/10/15 03:12:33;;;;;;;10.00;4.90;;;;;;;13.90;100.00;100947.13;2048592;29;20459;-66
2023/10/15 03:13:34;;;;;;;10.17;4.60;;;;;;;13.90;100.00;100943.56;2048879;29;20431;-66
2023/10/15 03:14:34;;;;;;;12.47;4.80;;;;;;;13.87;100.00;100952.78;2049074;28;20450;-66
2023/10/15 03:15:45;;;;;;;11.87;4.40;;;;;;;13.86;100.00;100952.03;2048594;28;20645;-65
2023/10/15 03:16:46;;;;;;;6.90;4.20;;;;;;;13.86;100.00;100949.25;2048791;28;20171;-65
2023/10/15 03:17:46;;;;;;;11.47;4.57;;;;;;;13.83;100.00;100950.13;2048737;28;20455;-65
2023/10/15 03:18:48;;;;;;;8.63;4.83;;;;;;;13.86;100.00;100946.47;2049375;29;20715;-64
2023/10/15 03:19:48;;;;;;;6.17;4.53;;;;;;;13.61;100.00;100909.47;2049534;29;20615;-64
2023/10/15 03:20:57;;;;;;;7.57;4.47;;;;;;;13.88;100.00;100955.13;2048653;28;20547;-64
2023/10/15 03:21:59;;;;;;;6.87;3.97;;;;;;;13.88;100.00;100951.59;2048375;28;20199;-65
2023/10/15 03:22:59;;;;;;;6.47;3.90;;;;;;;13.46;100.00;100894.44;2048955;29;20639;-64
2023/10/15 03:24:04;;;;;;;11.73;4.27;;;;;;;13.87;100.00;100950.00;2048933;28;20461;-64
2023/10/15 03:25:13;;;;;;;8.60;4.97;;;;;;;13.85;100.00;100944.91;2048489;28;20246;-64
2023/10/15 03:26:17;;;;;;;6.70;4.07;;;;;;;13.86;100.00;100938.09;2048807;28;20454;-64
2023/10/15 03:27:22;;;;;;;7.00;4.20;;;;;;;13.84;100.00;100934.97;2048717;28;20530;-65
2023/10/15 03:28:24;;;;;;;10.27;4.10;;;;;;;13.83;100.00;100933.41;2049355;29;20912;-64
2023/10/15 03:29:24;;;;;;;7.17;3.93;;;;;;;13.82;100.00;100931.84;2048989;28;20455;-64
2023/10/15 03:30:25;;;;;;;11.53;4.70;;;;;;;13.81;100.00;100927.53;2048806;29;20455;-64
2023/10/15 03:31:31;;;;;;;12.17;4.57;;;;;;;13.83;100.00;100936.19;2048713;28;20195;-64
2023/10/15 03:32:37;;;;;;;9.27;4.00;;;;;;;13.83;100.00;100924.28;2048481;28;20277;-64
2023/10/15 03:33:37;;;;;;;7.33;4.33;;;;;;;13.82;100.00;100926.28;2055993;28;20478;-64
2023/10/15 03:34:47;;;;;;;9.60;4.00;;;;;;;13.77;100.00;100926.84;2055984;28;20906;-64
2023/10/15 03:35:54;;;;;;;6.70;4.10;;;;;;;13.36;100.00;100867.69;2043162;28;20333;-64
2023/10/15 03:36:58;;;;;;;7.03;4.33;;;;;;;13.79;100.00;100924.38;2048586;28;20404;-64
2023/10/15 03:38:03;;;;;;;7.90;4.57;;;;;;;13.80;100.00;100923.19;2048690;28;20423;-64
2023/10/15 03:39:10;;;;;;;5.70;4.20;;;;;;;13.64;100.00;100901.03;2048379;28;20449;-64
2023/10/15 03:40:30;;;;;;;7.50;4.23;;;;;;;13.80;100.00;100919.59;2048285;28;20446;-64
2023/10/15 03:41:39;;;;;;;8.77;4.77;;;;;;;13.79;100.00;100929.19;2048412;29;20410;-64
2023/10/15 03:42:40;;;;;;;9.60;4.70;;;;;;;13.78;100.00;100936.75;2047790;28;20438;-65
2023/10/15 03:43:41;;;;;;;7.30;4.40;;;;;;;13.56;100.00;100899.69;2048648;28;20414;-64
2023/10/15 03:44:49;;;;;;;6.27;4.00;;;;;;;13.79;100.00;100929.19;2049377;29;20660;-64
2023/10/15 03:45:53;;;;;;;8.63;4.63;;;;;;;13.76;100.00;100921.72;2048856;29;20171;-64
2023/10/15 03:47:03;;;;;;;6.57;4.50;;;;;;;13.32;100.00;100856.69;2048519;29;20535;-64
2023/10/15 03:48:09;;;;;;;7.27;4.40;;;;;;;13.75;100.00;100922.94;2048790;28;20928;-64
2023/10/15 03:49:10;;;;;;;9.70;4.63;;;;;;;13.73;100.00;100920.59;2055005;28;20512;-64
2023/10/15 03:50:11;;;;;;;8.07;3.93;;;;;;;13.72;100.00;100923.81;2050026;28;20510;-64
2023/10/15 03:51:15;;;;;;;10.40;5.20;;;;;;;13.71;100.00;100922.28;2048743;28;20479;-64
2023/10/15 03:52:22;;;;;;;10.80;4.33;;;;;;;13.70;100.00;100920.72;2055547;28;20202;-64
2023/10/15 03:53:31;;;;;;;8.13;4.53;;;;;;;13.70;100.00;100921.50;2048061;29;21064;-64
2023/10/15 03:54:33;;;;;;;6.63;3.80;;;;;;;13.71;100.00;100919.50;2046998;29;20473;-64
2023/10/15 03:55:34;;;;;;;7.77;4.47;;;;;;;13.69;100.00;100919.94;2043007;28;20729;-64
2023/10/15 03:56:34;;;;;;;7.33;4.20;;;;;;;13.67;100.00;100922.41;2048600;28;20428;-64
2023/10/15 03:57:36;;;;;;;7.07;4.60;;;;;;;13.67;100.00;100918.81;2048609;28;20185;-64
2023/10/15 03:58:37;;;;;;;7.17;4.13;;;;;;;13.65;100.00;100927.66;2049243;29;20190;-64
2023/10/15 03:59:44;;;;;;;9.53;3.97;;;;;;;13.60;100.00;100919.06;2048475;28;21149;-64
2023/10/15 04:00:48;;;;;;;6.13;3.37;;;;;;;13.32;100.00;100880.97;2048545;28;20577;-64
2023/10/15 04:01:51;;;;;;;6.20;3.97;;;;;;;13.54;100.00;100918.06;2048155;28;20459;-64
2023/10/15 04:03:01;;;;;;;5.93;3.97;;;;;;;13.49;100.00;100913.03;2048379;29;20524;-64
2023/10/15 04:04:02;;;;;;;6.13;3.50;;;;;;;13.47;100.00;100924.63;2048822;28;20542;-64
2023/10/15 04:05:14;;;;;;;4.77;3.73;;;;;;;13.34;100.00;100906.34;2048594;28;20460;-64
2023/10/15 04:06:19;;;;;;;8.93;4.17;;;;;;;13.35;100.00;100927.38;2048492;28;20451;-64
2023/10/15 04:07:19;;;;;;;6.50;4.10;;;;;;;13.24;100.00;100919.38;2048512;29;20888;-64
2023/10/15 04:08:20;;;;;;;8.07;4.70;;;;;;;12.95;100.00;100876.09;2048242;28;20595;-64
2023/10/15 04:09:24;;;;;;;6.27;4.17;;;;;;;13.19;100.00;100927.47;2048546;28;20565;-64
2023/10/15 04:10:43;;;;;;;7.13;4.10;;;;;;;13.14;100.00;100930.81;2048534;29;20187;-64
2023/10/15 04:11:44;;;;;;;6.30;4.30;;;;;;;13.08;100.00;100925.03;2048367;28;20503;-64
2023/10/15 04:12:45;;;;;;;7.20;4.43;;;;;;;13.05;100.00;100922.31;2048434;28;20449;-64
2023/10/15 04:13:45;;;;;;;7.13;4.50;;;;;;;13.04;100.00;100917.97;2049045;29;20431;-64
2023/10/15 04:14:46;;;;;;;8.93;3.90;;;;;;;12.69;100.00;100864.13;2048449;28;20282;-64
2023/10/15 04:15:49;;;;;;;7.10;4.47;;;;;;;13.02;100.00;100921.19;2048365;28;20669;-64
2023/10/15 04:16:50;;;;;;;12.73;4.40;;;;;;;12.99;100.00;100918.53;2048460;28;20207;-64
2023/10/15 04:17:52;;;;;;;13.23;4.00;;;;;;;12.43;100.00;100834.69;2048442;28;20541;-64
2023/10/15 04:18:52;;;;;;;9.40;4.23;;;;;;;12.66;100.00;100875.38;2048289;28;20212;-64
2023/10/15 04:19:52;;;;;;;10.03;4.70;;;;;;;12.85;100.00;100900.22;2048480;28;20421;-64
2023/10/15 04:20:56;;;;;;;5.97;3.70;;;;;;;12.85;100.00;100922.47;2048357;28;20204;-64
2023/10/15 04:22:00;;;;;;;9.40;4.60;;;;;;;12.85;100.00;100913.34;2048674;29;20185;-64
2023/10/15 04:23:00;;;;;;;8.67;4.13;;;;;;;12.84;100.00;100914.56;2040332;29;20526;-65
2023/10/15 04:24:01;;;;;;;8.07;4.50;;;;;;;12.69;100.00;100900.28;2047549;29;20451;-64
2023/10/15 04:25:06;;;;;;;5.10;3.73;;;;;;;12.77;100.00;100918.34;2048755;28;20196;-63
2023/10/15 04:26:11;;;;;;;5.80;4.30;;;;;;;12.77;100.00;100912.78;2047736;29;20222;-64
2023/10/15 04:27:17;;;;;;;7.87;4.00;;;;;;;12.58;100.00;100888.69;2048523;28;20499;-64
2023/10/15 04:28:19;;;;;;;6.93;3.53;;;;;;;12.66;100.00;100903.16;2048431;28;20857;-64
2023/10/15 04:29:21;;;;;;;8.90;4.27;;;;;;;12.67;100.00;100916.63;2048390;28;20460;-64
2023/10/15 04:30:23;;;;;;;7.80;4.40;;;;;;;12.58;100.00;100899.81;2048270;28;20851;-64
2023/10/15 04:31:23;;;;;;;6.80;4.33;;;;;;;12.66;100.00;100914.28;2048258;28;20516;-64
2023/10/15 04:32:45;;;;;;;8.87;4.27;;;;;;;12.64;100.00;100914.72;2048827;29;20482;-64
2023/10/15 04:33:44;;;;;;;6.07;4.20;;;;;;;12.64;100.00;100925.84;2039833;28;20841;-64
2023/10/15 04:34:47;;;;;;;11.93;4.70;;;;;;;12.63;100.00;100915.94;2040569;28;20937;-64
2023/10/15 04:35:48;;;;;;;9.07;4.50;;;;;;;12.65;100.00;100924.63;2048577;29;20197;-64
2023/10/15 04:36:49;;;;;;;8.20;4.40;;;;;;;12.62;100.00;100913.59;2048089;28;20449;-64
2023/10/15 04:37:54;;;;;;;8.03;4.33;;;;;;;12.62;100.00;100913.59;2042093;29;20487;-64
2023/10/15 04:39:11;;;;;;;8.03;4.00;;;;;;;12.57;100.00;100922.47;2045988;28;20458;-64
2023/10/15 04:40:12;;;;;;;6.43;4.20;;;;;;;12.58;100.00;100926.81;2048307;28;20457;-64
2023/10/15 04:41:21;;;;;;;6.17;3.67;;;;;;;12.59;100.00;100920.81;2048423;28;20941;-64
2023/10/15 04:42:28;;;;;;;7.07;4.30;;;;;;;12.61;100.00;100925.94;2047715;28;20459;-64
2023/10/15 04:43:29;;;;;;;6.37;3.90;;;;;;;12.61;100.00;100918.38;2048492;28;20454;-64
2023/10/15 04:44:33;;;;;;;6.50;3.87;;;;;;;12.62;100.00;100922.75;2048141;28;20447;-64
2023/10/15 04:46:40;;;;;;;8.97;4.53;;;;;;;12.66;100.00;100919.84;2048361;28;20434;-64
2023/10/15 04:47:41;;;;;;;9.40;4.23;;;;;;;12.68;100.00;100926.53;2048630;28;20653;-64
2023/10/15 04:48:42;;;;;;;6.47;4.50;;;;;;;12.43;100.00;100872.81;2055066;28;20482;-64
2023/10/15 04:49:47;;;;;;;6.93;3.73;;;;;;;12.70;100.00;100921.31;2056152;28;20635;-64
2023/10/15 04:50:47;;;;;;;9.83;5.20;;;;;;;12.71;100.00;100922.84;2047801;28;20572;-64
2023/10/15 04:51:48;;;;;;;8.13;4.53;;;;;;;12.74;100.00;100921.19;2047671;28;20548;-64
2023/10/15 04:52:48;;;;;;;8.60;4.43;;;;;;;12.76;100.00;100925.09;2048174;28;20657;-65
2023/10/15 04:53:49;;;;;;;8.60;4.20;;;;;;;12.77;100.00;100920.34;2048353;28;20278;-63
2023/10/15 04:54:49;;;;;;;8.77;4.40;;;;;;;12.74;100.00;100919.22;2048147;28;20207;-63
2023/10/15 04:55:52;;;;;;;9.93;4.17;;;;;;;12.17;100.00;100830.28;2047614;28;20180;-62
2023/10/15 04:56:54;;;;;;;12.97;5.20;;;;;;;12.52;100.00;100876.53;2048177;28;20641;-66
2023/10/15 04:57:55;;;;;;;12.30;5.53;;;;;;;12.76;100.00;100916.75;2048836;29;20433;-67
2023/10/15 04:58:55;;;;;;;13.97;4.57;;;;;;;12.67;100.00;100896.38;2048620;29;20428;-64
2023/10/15 04:59:56;;;;;;;7.50;4.90;;;;;;;12.86;100.00;100926.81;2048122;28;20197;-63
2023/10/15 05:00:59;;;;;;;8.50;4.80;;;;;;;12.78;100.00;100900.44;2048292;28;20196;-63
2023/10/15 05:01:59;;;;;;;8.77;4.40;;;;;;;12.89;100.00;100922.38;2047253;28;20198;-62